Meteo Giornale » Osservazioni meteo Italia » Pisa-S Giusto

ore: 12:45 - Osservazioni Meteo Pisa-S Giusto
Lat. 43° 41' N Lon. 10° 23' E Alt. 2 metri s.l.m.

sereno Europe/Rome

25 °C

Sereno

Temp. 24 Ore

17 °C

28 °C

Est/Sud-Est

9.3 Km/h

Dew point 8 °C

Umidità 33 %

Visibilità  10 Km

Il sole sorge alle ore 05:41

Il sole tramonta alle ore 20:49

Data e Ora Cielo e Fenomeni T °C DP °C Um. % Pres. hPa Vis. km Vento km/h
Oggi h: 12:45 sereno Sereno 25 8 33 1018 10 E/SE 9.3
Oggi h: 12:15 sereno Sereno 25 8 33 1018 10 E/SE 11.1
Oggi h: 11:45 sereno Sereno 25 8 33 1018 10 E/SE 13
Oggi h: 11:15 sereno Sereno 24 8 35 1018 10 E 16.7
Oggi h: 10:45 sereno Sereno 23 12 49 1018 10 E 16.7
Oggi h: 10:15 nuvoloso Nuvoloso 21 12 56 1018 10 E/SE 13
Oggi h: 09:45 molto_nuvoloso Molto Nuvoloso 19 11 59 1018 10 E 11.1
Oggi h: 09:15 molto_nuvoloso Molto Nuvoloso 19 11 59 1018 10 E/SE 11.1
Oggi h: 08:45 molto_nuvoloso Molto Nuvoloso 18 11 63 1018 10 E/SE 14.8
Oggi h: 08:15 molto_nuvoloso Molto Nuvoloso 18 10 59 1018 10 E/SE 11.1
Oggi h: 07:45 molto_nuvoloso Molto Nuvoloso 18 10 59 1017 10 E 9.3
Oggi h: 07:15 molto_nuvoloso Molto Nuvoloso 17 10 63 1017 10 E/SE 9.3
Oggi h: 06:45 molto_nuvoloso Molto Nuvoloso 17 11 67 1017 10 E/SE 11.1
Oggi h: 06:15 molto_nuvoloso Molto Nuvoloso 18 10 59 1017 10 E 9.3
Oggi h: 05:45 molto_nuvoloso Molto Nuvoloso 18 10 59 1017 10 E 7.4
Oggi h: 05:15 nuvoloso Nuvoloso 18 9 55 1017 10 E/SE 13
Oggi h: 04:45 nuvoloso Nuvoloso 18 9 55 1017 10 E/SE 13
Oggi h: 04:15 sereno Sereno 17 10 63 1017 10 E 13
Oggi h: 03:45 sereno Sereno 17 8 55 1017 10 E 11.1
Oggi h: 03:15 sereno Sereno 18 9 55 1017 10 E 11.1
Oggi h: 02:45 sereno Sereno 19 10 55 1017 10 E 9.3
Oggi h: 02:15 sereno Sereno 19 10 55 1017 10 E 11.1
Oggi h: 01:45 sereno Sereno 19 11 59 1017 10 E 14.8
Oggi h: 01:15 sereno Sereno 18 11 63 1017 10 E/SE 14.8
Oggi h: 00:45 sereno Sereno 18 11 63 1017 10 E/SE 14.8
Oggi h: 00:15 sereno Sereno 18 12 67 1017 10 E/SE 14.8
Ieri h: 23:45 sereno Sereno 19 14 72 1016 10 E/SE 13
Ieri h: 23:15 sereno Sereno 18 17 93 1016 10 E/SE 13
Ieri h: 22:45 sereno Sereno 18 17 93 1016 10 E/SE 14.8
Ieri h: 22:15 sereno Sereno 19 17 88 1015 10 SE 9.3
Ieri h: 21:15 sereno Sereno 22 17 73 1014 10 N 3.7
Ieri h: 20:45 sereno Sereno 23 17 68 1014 10 O 7.4
Ieri h: 20:15 sereno Sereno 23 16 64 1014 10 O 7.4
Ieri h: 19:45 sereno Sereno 24 17 64 1014 10 O 11.1
Ieri h: 19:15 sereno Sereno 25 17 61 1014 10 O 13
Ieri h: 18:45 sereno Sereno 25 17 61 1014 10 O 14.8
Ieri h: 18:15 sereno Sereno 26 16 54 1014 10 O 13
Ieri h: 17:45 sereno Sereno 28 12 37 1014 10 O 14.8
Ieri h: 17:15 sereno Sereno 28 12 37 1014 10 O 14.8
Ieri h: 16:45 sereno Sereno 28 12 37 1014 10 N 5.5
Ieri h: 16:15 nuvoloso Nuvoloso 27 11 36 1014 10 E 13
Ieri h: 15:45 nuvoloso Nuvoloso 28 12 37 1014 10 SE 14.8
Ieri h: 15:15 nuvoloso Nuvoloso 28 12 37 1014 10 E 16.7
Ieri h: 14:45 sereno Sereno 28 12 37 1015 10 E 16.7
Ieri h: 14:15 sereno Sereno 27 13 42 1015 10 E 16.7
Ieri h: 13:45 sereno Sereno 27 13 42 1015 10 E 14.8